Time;durP1;ratioP1;P1;durP2;ratioP2;P2;SDS_P1;SDS_P2;PMS_P1;PMS_P2;Temp;Humidity;BMP_temperature;BMP_pressure;BME280_temperature;BME280_humidity;BME280_pressure;Samples;Min_cycle;Max_cycle;Signal;HPM_P1;HPM_P2
2022/11/30 00:00:00;;;;;;;52.10;17.50;;;;;;;-148.88;100.00;76955.50;5054844;28;20025;-76
2022/11/30 00:02:28;;;;;;;56.10;16.88;;;;;;;-148.88;100.00;76957.53;5054560;28;20025;-75
2022/11/30 00:04:53;;;;;;;48.65;17.33;;;;;;;-148.88;100.00;76963.63;5054946;28;20108;-75
2022/11/30 00:07:19;;;;;;;49.10;16.98;;;;;;;-148.88;100.00;76959.56;5054795;28;20107;-75
2022/11/30 00:09:44;;;;;;;52.63;18.35;;;;;;;-148.88;100.00;76965.66;5054591;28;20025;-76
2022/11/30 00:12:09;;;;;;;53.85;17.25;;;;;;;-148.88;100.00;76971.75;5054983;28;20060;-76
2022/11/30 00:14:35;;;;;;;46.03;16.05;;;;;;;-148.88;100.00;76965.66;5054878;28;20020;-76
2022/11/30 00:17:00;;;;;;;58.58;17.92;;;;;;;-148.88;100.00;76967.69;5053618;28;20048;-75
2022/11/30 00:19:25;;;;;;;54.97;17.90;;;;;;;-148.88;100.00;76971.75;5054540;28;20464;-75
2022/11/30 00:21:50;;;;;;;61.55;18.77;;;;;;;-148.88;100.00;76973.78;5054552;28;20032;-75
2022/11/30 00:24:16;;;;;;;51.03;17.77;;;;;;;-148.88;100.00;76973.78;5054270;28;20100;-75
2022/11/30 00:26:41;;;;;;;57.67;18.67;;;;;;;-148.88;100.00;76971.75;5054340;28;20025;-75
2022/11/30 00:29:06;;;;;;;66.55;19.13;;;;;;;-148.88;100.00;76975.81;5054574;28;20028;-75
2022/11/30 00:31:32;;;;;;;62.80;17.80;;;;;;;-148.88;100.00;76988.00;5053086;28;20074;-75
2022/11/30 00:33:57;;;;;;;64.72;19.30;;;;;;;-148.88;100.00;76990.03;5054322;28;20017;-75
2022/11/30 00:36:22;;;;;;;71.18;18.95;;;;;;;-148.88;100.00;76992.06;5054788;28;20037;-74
2022/11/30 00:38:49;;;;;;;66.90;20.35;;;;;;;-148.88;100.00;76994.09;5054259;28;20097;-75
2022/11/30 00:41:15;;;;;;;63.90;19.67;;;;;;;-148.88;100.00;76992.06;5052938;28;20021;-74
2022/11/30 00:43:41;;;;;;;63.25;19.35;;;;;;;-148.88;100.00;76996.13;5052863;28;20479;-74
2022/11/30 00:46:10;;;;;;;67.30;19.15;;;;;;;-148.88;100.00;77006.31;5052785;28;20091;-76
2022/11/30 00:48:39;;;;;;;71.20;19.63;;;;;;;-148.88;100.00;77002.22;5053963;28;20021;-75
2022/11/30 00:51:05;;;;;;;70.35;19.42;;;;;;;-148.88;100.00;77000.19;5052650;28;20037;-75
2022/11/30 00:53:31;;;;;;;62.25;19.13;;;;;;;-148.88;100.00;77000.19;5053768;28;20028;-75
2022/11/30 00:55:56;;;;;;;68.50;19.92;;;;;;;-148.88;100.00;77004.25;5053816;28;20021;-75
2022/11/30 00:58:22;;;;;;;79.35;19.95;;;;;;;-148.88;100.00;77012.41;5054027;28;20472;-75
2022/11/30 01:00:47;;;;;;;82.57;19.70;;;;;;;-148.88;100.00;77016.47;5053636;28;20028;-76
2022/11/30 01:03:13;;;;;;;67.05;19.48;;;;;;;-148.88;100.00;77018.50;5053660;28;20024;-75
2022/11/30 01:05:40;;;;;;;70.30;18.95;;;;;;;-148.88;100.00;77018.50;5052354;28;20025;-75
2022/11/30 01:08:07;;;;;;;77.30;19.38;;;;;;;-148.88;100.00;77020.53;5053852;28;20028;-75
2022/11/30 01:10:35;;;;;;;75.95;19.00;;;;;;;-148.88;100.00;77012.41;5053507;28;20044;-75
2022/11/30 01:13:01;;;;;;;91.35;21.95;;;;;;;-148.88;100.00;77020.53;5052008;28;20101;-75
2022/11/30 01:15:27;;;;;;;88.18;20.63;;;;;;;-148.88;100.00;77018.50;5052933;28;20025;-75
2022/11/30 01:17:52;;;;;;;104.43;20.50;;;;;;;-148.88;100.00;77020.53;5053519;28;20498;-75
2022/11/30 01:20:18;;;;;;;85.35;20.98;;;;;;;-148.88;100.00;77016.47;5053846;28;20021;-75
2022/11/30 01:22:43;;;;;;;92.07;20.42;;;;;;;-148.88;100.00;77018.50;5051935;28;20024;-75
2022/11/30 01:25:09;;;;;;;90.45;20.90;;;;;;;-148.88;100.00;77018.50;5053356;28;20479;-75
2022/11/30 01:27:34;;;;;;;80.25;21.17;;;;;;;-148.88;100.00;77022.56;5068842;28;20109;-75
2022/11/30 01:30:00;;;;;;;89.40;20.23;;;;;;;-148.88;100.00;77020.53;5053499;28;20402;-75
2022/11/30 01:32:26;;;;;;;101.88;21.33;;;;;;;-148.88;100.00;77026.63;5053503;28;20075;-75
2022/11/30 01:34:51;;;;;;;93.63;20.70;;;;;;;-148.88;100.00;77032.72;5053136;28;20407;-75
2022/11/30 01:37:16;;;;;;;105.60;22.00;;;;;;;-148.88;100.00;77028.66;5053110;28;20025;-75
2022/11/30 01:39:42;;;;;;;101.85;21.13;;;;;;;-148.88;100.00;77024.59;5053335;28;20056;-75
2022/11/30 01:42:16;;;;;;;97.53;20.95;;;;;;;-148.88;100.00;77032.72;5051875;28;20032;-75
2022/11/30 01:44:55;;;;;;;91.00;20.65;;;;;;;-148.88;100.00;77024.59;5053015;28;20029;-75
2022/11/30 01:47:46;;;;;;;104.32;21.88;;;;;;;-148.88;100.00;77028.66;5051776;28;20021;-75
2022/11/30 01:50:18;;;;;;;90.63;19.40;;;;;;;-148.88;100.00;77022.56;5047223;28;20037;-75
2022/11/30 01:52:47;;;;;;;86.40;19.08;;;;;;;-148.88;100.00;77022.56;5053464;28;20407;-74
2022/11/30 01:55:27;;;;;;;90.75;20.73;;;;;;;-148.88;100.00;77020.53;5053015;28;20024;-75
2022/11/30 01:58:04;;;;;;;65.25;18.48;;;;;;;-148.88;100.00;77024.59;5053183;28;20021;-75
2022/11/30 02:00:30;;;;;;;80.82;20.23;;;;;;;-148.88;100.00;77022.56;5052897;28;20021;-76
2022/11/30 02:03:11;;;;;;;75.22;19.73;;;;;;;-148.88;100.00;77034.75;5052821;28;20075;-75
2022/11/30 02:05:38;;;;;;;80.70;18.50;;;;;;;-148.88;100.00;77034.75;5053110;28;20017;-76
2022/11/30 02:08:05;;;;;;;76.22;18.13;;;;;;;-148.88;100.00;77034.75;5053032;28;20029;-75
2022/11/30 02:10:34;;;;;;;69.97;19.10;;;;;;;-148.88;100.00;77026.63;5052607;28;20471;-75
2022/11/30 02:13:37;;;;;;;73.75;18.38;;;;;;;-148.88;100.00;77028.66;5052983;28;20032;-75
2022/11/30 02:16:22;;;;;;;68.22;18.48;;;;;;;-148.88;100.00;77026.63;5051622;28;20387;-75
2022/11/30 02:19:04;;;;;;;71.72;18.83;;;;;;;-148.88;100.00;77042.88;5052833;28;20102;-76
2022/11/30 02:21:47;;;;;;;63.97;16.67;;;;;;;-148.88;100.00;77040.84;5052984;28;20025;-75
2022/11/30 02:24:50;;;;;;;56.85;16.70;;;;;;;-148.88;100.00;77028.66;5052644;28;20036;-76
2022/11/30 02:27:26;;;;;;;65.45;15.77;;;;;;;-148.88;100.00;77038.81;5056002;28;20025;-76
2022/11/30 02:30:04;;;;;;;54.05;15.43;;;;;;;-148.88;100.00;77034.75;5055374;28;20024;-75
2022/11/30 02:32:36;;;;;;;65.97;16.10;;;;;;;-148.88;100.00;77032.72;5056860;28;20024;-75
2022/11/30 02:35:04;;;;;;;57.10;15.98;;;;;;;-148.88;100.00;77034.75;5056517;28;20047;-75
2022/11/30 02:37:30;;;;;;;47.25;15.63;;;;;;;-148.88;100.00;77028.66;5055192;28;20025;-75
2022/11/30 02:39:56;;;;;;;45.55;15.13;;;;;;;-148.88;100.00;77016.47;5055109;28;20392;-75
2022/11/30 02:42:22;;;;;;;53.50;14.73;;;;;;;-148.88;100.00;77028.66;5055017;28;20031;-75
2022/11/30 02:44:51;;;;;;;61.35;16.02;;;;;;;-148.88;100.00;77028.66;5056301;28;20021;-75
2022/11/30 02:47:35;;;;;;;44.17;14.15;;;;;;;-148.88;100.00;77018.50;5056447;28;20025;-75
2022/11/30 02:50:08;;;;;;;;;;;;;;;-148.88;100.00;77040.84;5056823;28;20028;-75
2022/11/30 02:52:34;;;;;;;57.38;13.15;;;;;;;-148.88;100.00;77036.78;5056158;28;19939;-75
2022/11/30 02:55:06;;;;;;;63.70;13.82;;;;;;;-148.88;100.00;77044.91;5054819;28;20112;-75
2022/11/30 02:57:32;;;;;;;68.95;15.88;;;;;;;-148.88;100.00;77048.97;5056449;28;20491;-75
2022/11/30 03:00:02;;;;;;;65.30;14.00;;;;;;;-148.88;100.00;77053.03;5063291;22;20033;-88
2022/11/30 03:02:27;;;;;;;56.08;13.35;;;;;;;-148.88;100.00;77048.97;5057716;28;20107;-87
2022/11/30 03:04:53;;;;;;;56.70;14.43;;;;;;;-148.88;100.00;77048.97;5057206;28;20056;-86
2022/11/30 03:07:18;;;;;;;48.20;14.07;;;;;;;-148.88;100.00;77055.06;5055391;28;20044;-87
2022/11/30 03:09:44;;;;;;;55.85;13.52;;;;;;;-148.88;100.00;77061.16;5056415;28;20394;-87
2022/11/30 03:12:12;;;;;;;82.18;17.05;;;;;;;-148.88;100.00;77061.16;5056999;28;20021;-88
2022/11/30 03:14:37;;;;;;;115.38;17.92;;;;;;;-148.88;100.00;77073.34;5118498;23;20140;-89
2022/11/30 03:17:05;;;;;;;55.22;14.68;;;;;;;-148.88;100.00;77061.16;5096368;28;20110;-87
2022/11/30 03:19:34;;;;;;;59.03;14.27;;;;;;;-148.88;100.00;77065.22;5113689;28;20020;-86
2022/11/30 03:22:00;;;;;;;108.60;16.90;;;;;;;-148.88;100.00;77067.25;5095433;28;20027;-89
2022/11/30 03:24:39;;;;;;;82.57;16.23;;;;;;;-148.88;100.00;77069.28;5096518;28;20024;-89
2022/11/30 03:27:04;;;;;;;79.97;16.05;;;;;;;-148.88;100.00;77071.31;5075831;28;20028;-88
2022/11/30 03:29:30;;;;;;;103.43;16.92;;;;;;;-148.88;100.00;77063.19;5075112;28;20028;-87
2022/11/30 03:31:55;;;;;;;82.68;14.80;;;;;;;-148.88;100.00;77071.31;5078034;28;20028;-86
2022/11/30 03:34:26;;;;;;;81.28;14.95;;;;;;;-148.88;100.00;77073.34;5081441;28;20029;-91
2022/11/30 03:37:05;;;;;;;79.10;13.48;;;;;;;-148.88;100.00;77073.34;5076193;28;20020;-87
2022/11/30 03:39:30;;;;;;;122.50;16.48;;;;;;;-148.88;100.00;77065.22;5075317;28;20050;-87
2022/11/30 03:41:56;;;;;;;42.20;9.88;;;;;;;-148.88;100.00;77075.38;5076422;28;20036;-87
2022/11/30 03:44:21;;;;;;;62.13;11.07;;;;;;;-148.88;100.00;77075.38;5074164;28;20031;-86
2022/11/30 03:46:50;;;;;;;95.05;12.73;;;;;;;-148.88;100.00;77083.50;5076181;28;20036;-86
2022/11/30 03:49:18;;;;;;;174.25;18.30;;;;;;;-148.88;100.00;77085.53;5074476;28;20394;-86
2022/11/30 03:51:47;;;;;;;287.27;23.73;;;;;;;-148.88;100.00;77085.53;5075949;28;20383;-86
2022/11/30 03:54:20;;;;;;;207.98;19.90;;;;;;;-148.88;100.00;77093.66;5074709;28;20025;-87
2022/11/30 03:56:45;;;;;;;106.78;14.15;;;;;;;-148.88;100.00;77097.72;5075472;28;20293;-86
2022/11/30 03:59:11;;;;;;;85.25;13.23;;;;;;;-148.88;100.00;77105.84;5075973;28;20544;-87
2022/11/30 04:01:38;;;;;;;114.03;15.15;;;;;;;-148.88;100.00;77103.81;5076010;28;20524;-87
2022/11/30 04:04:04;;;;;;;82.28;13.63;;;;;;;-148.88;100.00;77105.84;5075250;28;20059;-90
2022/11/30 04:06:29;;;;;;;172.40;20.13;;;;;;;-148.88;100.00;77109.94;5075270;28;20096;-88
2022/11/30 04:08:54;;;;;;;28.25;9.75;;;;;;;-148.88;100.00;77118.06;5074842;28;20048;-86
2022/11/30 04:11:20;;;;;;;28.85;10.57;;;;;;;-148.88;100.00;77118.06;5074580;28;20044;-87
2022/11/30 04:13:45;;;;;;;28.02;9.55;;;;;;;-148.88;100.00;77122.13;5074783;28;20032;-86
2022/11/30 04:16:10;;;;;;;38.50;10.63;;;;;;;-148.88;100.00;77124.16;5076089;28;20054;-87
2022/11/30 04:18:37;;;;;;;28.08;10.15;;;;;;;-148.88;100.00;77130.25;5075313;28;20024;-86
2022/11/30 04:21:04;;;;;;;33.88;8.88;;;;;;;-148.88;100.00;77122.13;5075556;28;20020;-88
2022/11/30 04:23:35;;;;;;;30.95;10.07;;;;;;;-148.88;100.00;77122.13;5074340;28;20115;-88
2022/11/30 04:26:11;;;;;;;31.45;10.15;;;;;;;-148.88;100.00;77122.13;5074972;28;20059;-87
2022/11/30 04:28:36;;;;;;;42.85;11.85;;;;;;;-148.88;100.00;77128.22;5075769;28;20548;-87
2022/11/30 04:31:02;;;;;;;36.85;11.23;;;;;;;-148.88;100.00;77126.19;5076004;28;20021;-87
2022/11/30 04:33:31;;;;;;;47.92;12.82;;;;;;;-148.88;100.00;77126.19;5074332;28;20036;-85
2022/11/30 04:36:00;;;;;;;46.80;13.07;;;;;;;-148.88;100.00;77130.25;5074553;28;20632;-87
2022/11/30 04:38:26;;;;;;;27.08;9.98;;;;;;;-148.88;100.00;77134.31;5075374;28;20025;-88
2022/11/30 04:40:53;;;;;;;23.58;9.43;;;;;;;-148.88;100.00;77138.38;5074036;28;20027;-87
2022/11/30 04:43:25;;;;;;;21.42;9.50;;;;;;;-148.88;100.00;77132.28;5075240;28;20031;-88
2022/11/30 04:45:50;;;;;;;27.30;9.45;;;;;;;-148.88;100.00;77140.41;5074577;28;20028;-88
2022/11/30 04:48:20;;;;;;;22.17;8.95;;;;;;;-148.88;100.00;77138.38;5074524;28;20036;-88
2022/11/30 04:50:45;;;;;;;23.08;9.07;;;;;;;-148.88;100.00;77144.47;5073620;28;20035;-86
2022/11/30 04:53:11;;;;;;;25.75;9.90;;;;;;;-148.88;100.00;77146.50;5074414;28;20024;-87
2022/11/30 04:55:47;;;;;;;23.13;9.55;;;;;;;-148.88;100.00;77154.63;5074127;28;20122;-88
2022/11/30 04:58:16;;;;;;;23.10;9.77;;;;;;;-148.88;100.00;77154.63;5090810;28;20481;-89
2022/11/30 05:00:43;;;;;;;24.63;9.50;;;;;;;-148.88;100.00;77156.66;5090389;28;20023;-89
2022/11/30 05:03:09;;;;;;;26.50;9.57;;;;;;;-148.88;100.00;77154.63;5077469;28;20020;-90
2022/11/30 05:05:34;;;;;;;22.52;8.75;;;;;;;-148.88;100.00;77162.75;5075508;28;20029;-89
2022/11/30 05:08:05;;;;;;;20.38;9.10;;;;;;;-148.88;100.00;77158.69;5074441;28;20035;-89
2022/11/30 05:10:42;;;;;;;23.08;8.82;;;;;;;-148.88;100.00;77158.69;5075020;28;20356;-88
2022/11/30 05:13:08;;;;;;;23.63;9.35;;;;;;;-148.88;100.00;77158.69;5073417;28;20036;-89
2022/11/30 05:15:33;;;;;;;29.50;10.65;;;;;;;-148.88;100.00;77156.66;5074756;28;20387;-86
2022/11/30 05:18:00;;;;;;;28.88;10.50;;;;;;;-148.88;100.00;77162.75;5074417;28;20371;-87
2022/11/30 05:20:27;;;;;;;23.75;9.38;;;;;;;-148.88;100.00;77170.88;5073124;28;20020;-88
2022/11/30 05:22:53;;;;;;;24.73;9.65;;;;;;;-148.88;100.00;77168.84;5072881;28;20119;-89
2022/11/30 05:25:18;;;;;;;29.08;10.93;;;;;;;-148.88;100.00;77166.81;5073626;28;20055;-89
2022/11/30 05:27:43;;;;;;;24.73;9.50;;;;;;;-148.88;100.00;77170.88;5073202;28;20115;-86
2022/11/30 05:30:09;;;;;;;22.52;9.50;;;;;;;-148.88;100.00;77168.84;5074623;28;20020;-88
2022/11/30 05:32:56;;;;;;;23.05;9.70;;;;;;;-148.88;100.00;77174.94;5073621;28;20051;-87
2022/11/30 05:35:23;;;;;;;26.27;10.13;;;;;;;-148.88;100.00;77183.06;5074091;28;20054;-88
2022/11/30 05:37:52;;;;;;;27.05;9.50;;;;;;;-148.88;100.00;77174.94;5074387;28;20028;-85
2022/11/30 05:40:20;;;;;;;21.42;9.23;;;;;;;-148.88;100.00;77176.97;5097201;28;20036;-87
2022/11/30 05:42:46;;;;;;;33.17;10.38;;;;;;;-148.88;100.00;77174.94;5096568;28;20025;-87
2022/11/30 05:45:14;;;;;;;28.35;9.45;;;;;;;-148.88;100.00;77179.00;5077338;28;20085;-87
2022/11/30 05:47:42;;;;;;;22.70;8.82;;;;;;;-148.88;100.00;77179.00;5073990;28;20489;-87
2022/11/30 05:50:08;;;;;;;26.35;9.95;;;;;;;-148.88;100.00;77181.03;5075850;28;20495;-88
2022/11/30 05:52:55;;;;;;;27.05;10.10;;;;;;;-148.88;100.00;77189.16;5074115;28;20051;-86
2022/11/30 05:55:24;;;;;;;22.13;9.25;;;;;;;-148.88;100.00;77187.13;5073730;28;20101;-88
2022/11/30 05:58:10;;;;;;;26.50;10.00;;;;;;;-148.88;100.00;77185.09;5073582;28;20024;-88
2022/11/30 06:00:47;;;;;;;26.25;10.00;;;;;;;-148.88;100.00;77185.09;5074068;28;20032;-88
2022/11/30 06:03:13;;;;;;;26.08;10.43;;;;;;;-148.88;100.00;77191.19;5072261;28;20020;-89
2022/11/30 06:05:42;;;;;;;23.73;10.10;;;;;;;-148.88;100.00;77193.22;5072994;28;20125;-88
2022/11/30 06:08:07;;;;;;;32.97;11.05;;;;;;;-148.88;100.00;77187.13;5072171;28;20037;-86
2022/11/30 06:11:02;;;;;;;23.77;10.27;;;;;;;-148.88;100.00;77193.22;5072997;28;20028;-85
2022/11/30 06:13:43;;;;;;;29.23;10.10;;;;;;;-148.88;100.00;77183.06;5071607;28;20040;-85
2022/11/30 06:16:49;;;;;;;40.47;11.90;;;;;;;-148.88;100.00;77185.09;5072060;28;20044;-84
2022/11/30 06:19:25;;;;;;;33.45;10.70;;;;;;;-148.88;100.00;77191.19;5071356;28;20040;-83
2022/11/30 06:21:57;;;;;;;30.90;10.32;;;;;;;-148.88;100.00;77189.16;5076826;28;20481;-85
2022/11/30 06:24:22;;;;;;;32.92;10.07;;;;;;;-148.88;100.00;77191.19;5093540;22;20040;-76
2022/11/30 06:26:47;;;;;;;33.50;10.90;;;;;;;-148.88;100.00;77191.19;5092799;28;20078;-76
2022/11/30 06:29:13;;;;;;;41.47;10.38;;;;;;;-148.88;100.00;77191.19;5093302;28;20077;-77
2022/11/30 06:31:38;;;;;;;41.63;11.07;;;;;;;-148.88;100.00;77191.19;5108674;28;20035;-76
2022/11/30 06:34:03;;;;;;;40.00;10.75;;;;;;;-148.88;100.00;77187.13;5092954;28;20375;-76
2022/11/30 06:36:30;;;;;;;50.33;11.60;;;;;;;-148.88;100.00;77187.13;5092829;28;20410;-76
2022/11/30 06:38:55;;;;;;;44.35;10.85;;;;;;;-148.88;100.00;77195.25;5108387;28;20483;-75
2022/11/30 06:41:20;;;;;;;73.72;13.07;;;;;;;-148.88;100.00;77195.25;5092643;28;20043;-75
2022/11/30 06:43:46;;;;;;;82.82;13.55;;;;;;;-148.88;100.00;77189.16;5092600;28;20023;-76
2022/11/30 06:46:11;;;;;;;84.78;13.55;;;;;;;-148.88;100.00;77197.28;5092894;28;20449;-76
2022/11/30 06:48:37;;;;;;;87.30;14.82;;;;;;;-148.88;100.00;77187.13;5092703;28;20554;-76
2022/11/30 06:51:07;;;;;;;63.40;13.45;;;;;;;-148.88;100.00;77195.25;5092610;28;20415;-76
2022/11/30 06:53:33;;;;;;;71.05;12.82;;;;;;;-148.88;100.00;77195.25;5092641;28;20034;-76
2022/11/30 06:56:02;;;;;;;53.30;11.48;;;;;;;-148.88;100.00;77195.25;5108245;28;20024;-76
2022/11/30 06:58:27;;;;;;;71.70;12.30;;;;;;;-148.88;100.00;77203.41;5092586;28;20031;-76
2022/11/30 07:00:52;;;;;;;45.33;12.77;;;;;;;-148.88;100.00;77195.25;5092720;28;20016;-76
2022/11/30 07:03:17;;;;;;;176.55;19.85;;;;;;;-148.88;100.00;77191.19;5092414;28;20024;-76
2022/11/30 07:05:44;;;;;;;117.93;14.02;;;;;;;-148.88;100.00;77195.25;5108296;28;20110;-76
2022/11/30 07:08:11;;;;;;;45.15;11.00;;;;;;;-148.88;100.00;77191.19;5093040;28;20020;-76
2022/11/30 07:10:41;;;;;;;25.60;9.93;;;;;;;-148.88;100.00;77189.16;5092693;28;20470;-76
2022/11/30 07:13:11;;;;;;;17.50;8.05;;;;;;;-148.88;100.00;77183.06;5093568;28;20072;-76
2022/11/30 07:15:38;;;;;;;27.75;9.43;;;;;;;-148.88;100.00;77185.09;5096204;28;20479;-76
2022/11/30 07:18:04;;;;;;;19.40;8.68;;;;;;;-148.88;100.00;77176.97;5091022;28;20535;-76
2022/11/30 07:20:29;;;;;;;15.65;7.80;;;;;;;-148.88;100.00;77170.88;5095412;28;20032;-76
2022/11/30 07:22:55;;;;;;;22.55;8.85;;;;;;;-148.88;100.00;77183.06;5095536;28;20024;-76
2022/11/30 07:28:07;;;;;;;30.88;8.27;;;;;;;-148.88;100.00;77183.06;5096085;28;20085;-76
2022/11/30 07:30:32;;;;;;;34.38;9.57;;;;;;;-148.88;100.00;77185.09;5095551;28;20020;-76
2022/11/30 07:32:57;;;;;;;20.77;8.73;;;;;;;-148.88;100.00;77183.06;5095878;28;20085;-76
2022/11/30 07:35:23;;;;;;;52.13;10.95;;;;;;;-148.88;100.00;77185.09;5096418;28;20023;-76
2022/11/30 07:37:48;;;;;;;36.08;9.38;;;;;;;-148.88;100.00;77191.19;5095603;28;20458;-76
2022/11/30 07:40:13;;;;;;;36.58;8.45;;;;;;;-148.88;100.00;77183.06;5096036;28;20027;-76
2022/11/30 07:42:39;;;;;;;25.95;8.43;;;;;;;-148.88;100.00;77183.06;5095322;28;20076;-76
2022/11/30 07:45:05;;;;;;;20.25;9.23;;;;;;;-148.88;100.00;77181.03;5095325;28;20202;-76
2022/11/30 07:47:32;;;;;;;38.95;10.02;;;;;;;-148.88;100.00;77179.00;5095337;28;20081;-76
2022/11/30 07:49:58;;;;;;;46.20;13.40;;;;;;;-148.88;100.00;77191.19;5095803;28;20016;-76
2022/11/30 07:52:23;;;;;;;37.83;13.68;;;;;;;-148.88;100.00;77195.25;5095440;28;20039;-76
2022/11/30 07:54:49;;;;;;;32.17;12.63;;;;;;;-148.88;100.00;77191.19;5095012;28;20031;-76
2022/11/30 07:57:14;;;;;;;42.47;14.35;;;;;;;-148.88;100.00;77207.47;5095030;28;20493;-76
2022/11/30 07:59:39;;;;;;;51.90;12.90;;;;;;;-148.88;100.00;77211.53;5094974;28;20016;-76
2022/11/30 08:02:05;;;;;;;33.17;12.02;;;;;;;-148.88;100.00;77217.63;5095263;28;20513;-76
2022/11/30 08:04:30;;;;;;;36.58;12.93;;;;;;;-148.88;100.00;77215.59;5095195;28;20047;-76
2022/11/30 08:06:55;;;;;;;27.65;11.52;;;;;;;-148.88;100.00;77215.59;5094945;28;20101;-76
2022/11/30 08:09:21;;;;;;;34.08;13.13;;;;;;;-148.88;100.00;77223.72;5093393;28;20162;-77
2022/11/30 08:11:47;;;;;;;37.00;12.38;;;;;;;-148.88;100.00;77223.72;5095062;28;20391;-76
2022/11/30 08:14:13;;;;;;;27.05;12.77;;;;;;;-148.88;100.00;77215.59;5094607;28;20028;-76
2022/11/30 08:16:38;;;;;;;29.42;12.07;;;;;;;-148.88;100.00;77215.59;5094660;28;20116;-76
2022/11/30 08:19:04;;;;;;;32.75;12.00;;;;;;;-148.88;100.00;77229.81;5110322;28;20070;-76
2022/11/30 08:21:31;;;;;;;35.83;12.98;;;;;;;-148.88;100.00;77225.75;5110273;28;20023;-76
2022/11/30 08:23:56;;;;;;;30.33;11.80;;;;;;;-148.88;100.00;77227.78;5094197;28;20024;-76
2022/11/30 08:26:22;;;;;;;32.72;10.88;;;;;;;-148.88;100.00;77227.78;5094790;28;20023;-76
2022/11/30 08:28:49;;;;;;;30.23;11.93;;;;;;;-148.88;100.00;77233.88;5110095;28;20074;-76
2022/11/30 08:31:35;;;;;;;32.40;13.13;;;;;;;-148.88;100.00;77237.94;5110026;28;20026;-76
2022/11/30 08:34:06;;;;;;;27.95;11.23;;;;;;;-148.88;100.00;77246.06;5092697;28;20071;-76
2022/11/30 08:36:32;;;;;;;30.50;11.75;;;;;;;-148.88;100.00;77239.97;5094268;28;20028;-76
2022/11/30 08:39:03;;;;;;;35.55;12.15;;;;;;;-148.88;100.00;77250.13;5094340;28;20024;-76
2022/11/30 08:41:29;;;;;;;31.35;12.00;;;;;;;-148.88;100.00;77248.09;5094687;28;20475;-76
2022/11/30 08:43:54;;;;;;;31.52;13.02;;;;;;;-148.88;100.00;77256.22;5094344;28;20107;-76
2022/11/30 08:46:22;;;;;;;29.95;13.35;;;;;;;-148.88;100.00;77256.22;5094294;28;20028;-76
2022/11/30 08:48:48;;;;;;;30.13;12.88;;;;;;;-148.88;100.00;77262.31;5092814;28;20046;-76
2022/11/30 08:51:16;;;;;;;26.45;12.55;;;;;;;-148.88;100.00;77252.16;5109792;28;20502;-76
2022/11/30 08:53:42;;;;;;;44.95;14.18;;;;;;;-148.88;100.00;77260.28;5094000;28;20371;-76
2022/11/30 08:56:12;;;;;;;43.40;13.75;;;;;;;-148.88;100.00;77260.28;5109613;28;20539;-76
2022/11/30 08:58:38;;;;;;;47.60;15.43;;;;;;;-148.88;100.00;77280.59;5094626;28;20106;-76
2022/11/30 09:01:11;;;;;;;35.35;14.95;;;;;;;-148.88;100.00;77258.25;5094127;28;20588;-75
2022/11/30 09:03:38;;;;;;;34.88;14.82;;;;;;;-148.88;100.00;77268.41;5109474;28;20032;-76
2022/11/30 09:06:07;;;;;;;32.60;13.45;;;;;;;-148.88;100.00;77264.34;5092450;28;20032;-76
2022/11/30 09:08:33;;;;;;;33.10;13.20;;;;;;;-148.88;100.00;77276.53;5109380;28;20028;-76
2022/11/30 09:11:06;;;;;;;28.80;12.40;;;;;;;-148.88;100.00;77272.47;5109288;28;20406;-76
2022/11/30 09:13:31;;;;;;;35.10;14.05;;;;;;;-148.88;100.00;77278.56;5109537;28;20125;-76
2022/11/30 09:15:57;;;;;;;29.92;12.25;;;;;;;-148.88;100.00;77288.72;5093589;28;20486;-76
2022/11/30 09:18:22;;;;;;;30.30;13.07;;;;;;;-148.88;100.00;77280.59;5093587;28;20026;-76
2022/11/30 09:20:47;;;;;;;30.13;13.10;;;;;;;-148.88;100.00;77284.66;5093765;28;20355;-76
2022/11/30 09:23:13;;;;;;;30.10;13.30;;;;;;;-148.88;100.00;77296.88;5093205;28;20466;-76
2022/11/30 09:25:38;;;;;;;34.60;14.40;;;;;;;-148.88;100.00;77284.66;5093687;28;20099;-76
2022/11/30 09:28:03;;;;;;;28.50;12.95;;;;;;;-148.88;100.00;77288.72;5093360;28;20368;-76
2022/11/30 09:30:28;;;;;;;27.25;12.90;;;;;;;-148.88;100.00;77292.81;5093517;28;20031;-76
2022/11/30 09:32:54;;;;;;;26.00;11.52;;;;;;;-148.88;100.00;77290.75;5109151;28;20059;-76
2022/11/30 09:35:19;;;;;;;26.83;12.45;;;;;;;-148.88;100.00;77288.72;5108498;28;20470;-76
2022/11/30 09:37:44;;;;;;;26.75;11.57;;;;;;;-148.88;100.00;77300.94;5093290;28;20035;-76
2022/11/30 09:40:12;;;;;;;32.38;12.18;;;;;;;-148.88;100.00;77296.88;5093456;28;20445;-76
2022/11/30 09:43:20;;;;;;;28.10;12.88;;;;;;;-148.88;100.00;77292.81;5108708;28;20453;-76
2022/11/30 09:45:53;;;;;;;28.98;12.00;;;;;;;-148.88;100.00;77305.00;5072468;28;20042;-76
2022/11/30 09:48:53;;;;;;;24.63;12.35;;;;;;;-148.88;100.00;77302.97;5093142;28;20024;-76
2022/11/30 09:51:30;;;;;;;23.40;10.95;;;;;;;-148.88;100.00;77288.72;5093023;28;20095;-76
2022/11/30 09:54:10;;;;;;;27.63;11.32;;;;;;;-148.88;100.00;77302.97;5093054;28;20031;-76
2022/11/30 09:56:38;;;;;;;29.83;11.98;;;;;;;-148.88;100.00;77305.00;5093073;28;20028;-76
2022/11/30 09:59:28;;;;;;;24.75;11.27;;;;;;;-148.88;100.00;77298.91;5093210;28;20027;-76
2022/11/30 10:01:54;;;;;;;26.65;11.68;;;;;;;-148.88;100.00;77296.88;5108687;28;20027;-75
2022/11/30 10:04:23;;;;;;;27.40;12.68;;;;;;;-148.88;100.00;77319.22;5092848;28;20437;-76
2022/11/30 10:07:27;;;;;;;25.50;11.93;;;;;;;-148.88;100.00;77300.94;5092969;28;20024;-75
2022/11/30 10:10:13;;;;;;;27.80;11.70;;;;;;;-148.88;100.00;77309.06;5092948;28;20020;-76
2022/11/30 10:12:47;;;;;;;25.33;12.07;;;;;;;-148.88;100.00;77305.00;5093103;28;20502;-75
2022/11/30 10:15:34;;;;;;;23.77;11.60;;;;;;;-148.88;100.00;77300.94;5092361;28;20066;-76
2022/11/30 10:18:21;;;;;;;24.15;11.90;;;;;;;-148.88;100.00;77300.94;5093062;28;20039;-76
2022/11/30 10:21:17;;;;;;;26.35;12.70;;;;;;;-148.88;100.00;77290.75;5093101;28;20103;-76
2022/11/30 10:24:00;;;;;;;27.77;13.32;;;;;;;-148.88;100.00;77288.72;5092817;28;20028;-76
2022/11/30 10:26:34;;;;;;;22.25;11.80;;;;;;;-148.88;100.00;77296.88;5108398;28;20559;-75
2022/11/30 10:29:30;;;;;;;26.63;12.80;;;;;;;-148.88;100.00;77296.88;5108326;28;20494;-75
2022/11/30 10:32:01;;;;;;;31.67;13.20;;;;;;;-148.88;100.00;77309.06;5089283;28;20099;-76
2022/11/30 10:34:34;;;;;;;28.10;12.52;;;;;;;-148.88;100.00;77307.03;5092574;28;20032;-76
2022/11/30 10:37:11;;;;;;;28.15;13.07;;;;;;;-148.88;100.00;77305.00;5093141;28;20028;-76
2022/11/30 10:39:52;;;;;;;30.27;12.85;;;;;;;-148.88;100.00;77315.16;5092722;28;20028;-76
2022/11/30 10:42:26;;;;;;;25.38;12.07;;;;;;;-148.88;100.00;77302.97;5108240;28;20027;-75
2022/11/30 10:45:01;;;;;;;27.30;13.93;;;;;;;-148.88;100.00;77305.00;5108148;28;20155;-75
2022/11/30 10:47:35;;;;;;;28.88;13.10;;;;;;;-148.88;100.00;77305.00;5093035;28;20027;-75
2022/11/30 10:50:02;;;;;;;27.95;13.93;;;;;;;-148.88;100.00;77305.00;5096611;28;20470;-76
2022/11/30 10:52:33;;;;;;;25.15;12.95;;;;;;;-148.88;100.00;77296.88;5096263;28;20028;-76
2022/11/30 10:55:01;;;;;;;26.55;12.98;;;;;;;-148.88;100.00;77309.06;5096334;28;20059;-76
2022/11/30 10:57:30;;;;;;;28.27;13.57;;;;;;;-148.88;100.00;77296.88;5096262;28;20031;-76
2022/11/30 10:59:59;;;;;;;26.80;13.07;;;;;;;-148.88;100.00;77315.16;5111834;28;20023;-76
2022/11/30 11:02:44;;;;;;;29.10;12.55;;;;;;;-148.88;100.00;77296.88;5096117;28;20042;-76
2022/11/30 11:05:27;;;;;;;30.52;14.80;;;;;;;-148.88;100.00;77294.84;5096446;28;20030;-76
2022/11/30 11:08:01;;;;;;;25.85;12.65;;;;;;;-148.88;100.00;77296.88;5111739;28;20478;-76